^^
Your Local Weather - Clay, NY Station Historical Data
Daily Summary for February 17, 2018 Units:  Metric    English   Both
« Previous Day
Next Day »
Daily Weekly Monthly Yearly Custom
  High: Low: Average:
Temperature: 1.8 °C -7.6 °C -2.4 °C
Dew Point: -2.9 °C -10.1 °C -7.7 °C
Humidity: 89% 43% 68%
Wind Speed: 12.9km/h 0km/h 2.9km/h
Wind Gust: 19.3km/h - -
Wind- - SSE
Pressure: 1027.3 hPa 1013.8 hPa -
Precipitation: 0 mm    
Historical Graphs
 
 
Tabular Data for February 17, 2018
Time Temperature Dew Point Pressure Wind Wind Speed Wind Gust Humidity Rainfall Rate (Hourly) solar
00:02 -4.7 °C -9.5 °C 1023.9 hPa WNW 1.6 km/h 3.2 km/h 69% 0 mm 0 W/m2
00:08 -4.6 °C -9.4 °C 1023.9 hPa WNW 3.2 km/h 8 km/h 69% 0 mm 0 W/m2
00:14 -4.7 °C -9.3 °C 1023.9 hPa WNW 3.2 km/h 3.2 km/h 70% 0 mm 0 W/m2
00:20 -4.7 °C -9.4 °C 1023.9 hPa WNW 1.6 km/h 1.6 km/h 70% 0 mm 0 W/m2
00:26 -4.8 °C -9.4 °C 1023.9 hPa WNW 1.6 km/h 1.6 km/h 70% 0 mm 0 W/m2
00:32 -4.9 °C -9.3 °C 1024.3 hPa Calm   3.2 km/h 71% 0 mm 0 W/m2
00:38 -4.9 °C -9.3 °C 1024.3 hPa Calm   3.2 km/h 71% 0 mm 0 W/m2
00:44 -4.9 °C -9.3 °C 1024.3 hPa Calm     71% 0 mm 0 W/m2
00:50 -4.9 °C -9.3 °C 1024.6 hPa Calm     71% 0 mm 0 W/m2
00:56 -5 °C -9.3 °C 1024.6 hPa Calm     72% 0 mm 0 W/m2
01:02 -5.1 °C -9.3 °C 1024.6 hPa Calm     72% 0 mm 0 W/m2
01:08 -5 °C -9.3 °C 1024.6 hPa Calm     72% 0 mm 0 W/m2
01:14 -4.9 °C -9 °C 1024.6 hPa Calm     73% 0 mm 0 W/m2
01:20 -4.8 °C -8.9 °C 1024.9 hPa Calm     73% 0 mm 0 W/m2
01:26 -4.7 °C -9 °C 1024.9 hPa Calm     72% 0 mm 0 W/m2
01:32 -4.8 °C -9.1 °C 1024.9 hPa Calm     72% 0 mm 0 W/m2
01:38 -4.8 °C -8.9 °C 1024.6 hPa Calm     73% 0 mm 0 W/m2
01:44 -4.9 °C -9 °C 1024.6 hPa Calm     73% 0 mm 0 W/m2
01:50 -4.9 °C -9 °C 1024.9 hPa Calm     73% 0 mm 0 W/m2
01:56 -4.9 °C -8.9 °C 1024.9 hPa Calm     74% 0 mm 0 W/m2
02:02 -4.9 °C -8.9 °C 1024.9 hPa Calm     74% 0 mm 0 W/m2
02:08 -5 °C -8.9 °C 1024.9 hPa Calm     74% 0 mm 0 W/m2
02:14 -5 °C -8.9 °C 1024.9 hPa Calm     74% 0 mm 0 W/m2
02:20 -5 °C -8.9 °C 1024.9 hPa Calm     74% 0 mm 0 W/m2
02:26 -5 °C -8.9 °C 1024.9 hPa Calm     74% 0 mm 0 W/m2
02:32 -5.1 °C -8.8 °C 1024.9 hPa Calm     75% 0 mm 0 W/m2
02:38 -5.3 °C -9.1 °C 1024.9 hPa Calm     75% 0 mm 0 W/m2
02:44 -5.4 °C -9.2 °C 1024.9 hPa Calm     75% 0 mm 0 W/m2
02:50 -5.6 °C -9.2 °C 1024.9 hPa Calm     76% 0 mm 0 W/m2
02:56 -5.8 °C -9.3 °C 1024.9 hPa Calm     76% 0 mm 0 W/m2
03:02 -5.9 °C -9.5 °C 1025.3 hPa Calm     76% 0 mm 0 W/m2
03:08 -6.1 °C -9.5 °C 1025.3 hPa Calm     77% 0 mm 0 W/m2
03:14 -6.2 °C -9.4 °C 1025.3 hPa Calm     78% 0 mm 0 W/m2
03:20 -6.4 °C -9.4 °C 1025.3 hPa Calm     79% 0 mm 0 W/m2
03:26 -6.6 °C -9.6 °C 1025.3 hPa Calm     79% 0 mm 0 W/m2
03:32 -6.7 °C -9.6 °C 1025.6 hPa Calm     80% 0 mm 0 W/m2
03:38 -6.9 °C -9.8 °C 1025.6 hPa Calm     80% 0 mm 0 W/m2
03:44 -7 °C -9.7 °C 1025.6 hPa Calm     81% 0 mm 0 W/m2
03:50 -7.1 °C -9.7 °C 1026 hPa Calm     82% 0 mm 0 W/m2
03:56 -7.2 °C -9.8 °C 1026 hPa Calm     82% 0 mm 0 W/m2
04:02 -7.3 °C -9.7 °C 1026.3 hPa Calm     83% 0 mm 0 W/m2
04:08 -7.4 °C -9.8 °C 1026.3 hPa Calm     83% 0 mm 0 W/m2
04:14 -7.4 °C -9.8 °C 1026.3 hPa Calm     83% 0 mm 0 W/m2
04:20 -7.6 °C -9.8 °C 1026.3 hPa Calm     84% 0 mm 0 W/m2
04:26 -7.5 °C -9.7 °C 1026.3 hPa Calm     84% 0 mm 0 W/m2
04:32 -7.6 °C -9.8 °C 1026.3 hPa Calm     84% 0 mm 0 W/m2
04:38 -7.6 °C -9.7 °C 1026.3 hPa Calm     85% 0 mm 0 W/m2
04:44 -7.6 °C -9.7 °C 1026.3 hPa Calm     85% 0 mm 0 W/m2
04:50 -7.5 °C -9.6 °C 1026.6 hPa Calm     85% 0 mm 0 W/m2
04:56 -7.3 °C -9.3 °C 1026.6 hPa Calm     86% 0 mm 0 W/m2
05:02 -6.9 °C -8.9 °C 1026.6 hPa Calm   3.2 km/h 86% 0 mm 0 W/m2
05:08 -6.4 °C -8.4 °C 1026.6 hPa Calm   3.2 km/h 86% 0 mm 0 W/m2
05:14 -6.2 °C -8.1 °C 1026.6 hPa Calm     86% 0 mm 0 W/m2
05:20 -6 °C -7.9 °C 1026.6 hPa Calm     86% 0 mm 0 W/m2
05:26 -5.8 °C -7.9 °C 1026.6 hPa Calm     85% 0 mm 0 W/m2
05:32 -5.7 °C -7.8 °C 1026.6 hPa Calm   1.6 km/h 85% 0 mm 0 W/m2
05:38 -5.4 °C -7.7 °C 1026.6 hPa SSW 1.6 km/h 1.6 km/h 84% 0 mm 0 W/m2
05:44 -5.3 °C -7.8 °C 1027 hPa SSW 1.6 km/h 4.8 km/h 83% 0 mm 0 W/m2
05:50 -5.2 °C -8 °C 1027 hPa SSW 1.6 km/h 1.6 km/h 81% 0 mm 0 W/m2
05:56 -5.2 °C -7.9 °C 1026.6 hPa Calm   1.6 km/h 81% 0 mm 0 W/m2
06:02 -5.1 °C -8 °C 1027 hPa Calm   1.6 km/h 80% 0 mm 0 W/m2
06:08 -5.1 °C -8.1 °C 1027 hPa SSW 1.6 km/h 4.8 km/h 79% 0 mm 0 W/m2
06:14 -5.1 °C -8.1 °C 1027 hPa SSW 1.6 km/h 4.8 km/h 79% 0 mm 0 W/m2
06:20 -5.1 °C -8.1 °C 1026.6 hPa SSW 1.6 km/h 1.6 km/h 79% 0 mm 0 W/m2
06:26 -5.1 °C -8.2 °C 1027 hPa Calm   1.6 km/h 79% 0 mm 0 W/m2
06:32 -5.2 °C -8.2 °C 1027 hPa Calm     79% 0 mm 0 W/m2
06:38 -5.2 °C -8.3 °C 1027 hPa Calm     79% 0 mm 0 W/m2
06:44 -5.3 °C -8.3 °C 1027 hPa Calm     79% 0 mm 0 W/m2
06:50 -5.4 °C -8.4 °C 1027.3 hPa Calm     79% 0 mm 0 W/m2
06:56 -5.4 °C -8.3 °C 1027 hPa Calm     80% 0 mm 0 W/m2
07:02 -5.7 °C -8.6 °C 1027 hPa Calm     80% 0 mm 5 W/m2
07:08 -5.9 °C -8.8 °C 1027.3 hPa Calm     80% 0 mm 7 W/m2
07:14 -6 °C -8.7 °C 1027.3 hPa Calm     81% 0 mm 11 W/m2
07:20 -6.2 °C -8.9 °C 1027.3 hPa Calm     81% 0 mm 14 W/m2
07:26 -6.4 °C -8.9 °C 1027.3 hPa Calm     82% 0 mm 18 W/m2
07:32 -6.5 °C -9.1 °C 1027.3 hPa Calm     82% 0 mm 21 W/m2
07:38 -6.6 °C -8.9 °C 1027.3 hPa Calm     83% 0 mm 26 W/m2
07:44 -6.6 °C -8.9 °C 1027.3 hPa Calm     83% 0 mm 42 W/m2
07:50 -6.5 °C -8.9 °C 1027.3 hPa Calm     83% 0 mm 44 W/m2
07:56 -6.2 °C -8.5 °C 1027.3 hPa Calm   3.2 km/h 84% 0 mm 42 W/m2
08:02 -5.7 °C -7.9 °C 1027.3 hPa SSW 1.6 km/h 1.6 km/h 84% 0 mm 102 W/m2
08:08 -5.2 °C -7.7 °C 1027.3 hPa SSW 1.6 km/h 1.6 km/h 83% 0 mm 202 W/m2
08:14 -4.8 °C -7.4 °C 1027.3 hPa SE 1.6 km/h 4.8 km/h 82% 0 mm 192 W/m2
08:20 -4.3 °C -7.3 °C 1027 hPa SE 3.2 km/h 3.2 km/h 80% 0 mm 151 W/m2
08:26 -4.1 °C -7.3 °C 1027 hPa SSE 3.2 km/h 4.8 km/h 78% 0 mm 190 W/m2
08:32 -3.8 °C -7.4 °C 1026.6 hPa SSE 4.8 km/h 4.8 km/h 76% 0 mm 214 W/m2
08:38 -3.7 °C -7.4 °C 1026.6 hPa South 3.2 km/h 6.4 km/h 75% 0 mm 167 W/m2
08:50 -3.5 °C -7.8 °C 1026.6 hPa SW 4.8 km/h 6.4 km/h 72% 0 mm 225 W/m2
08:56 -3.6 °C -8.1 °C 1026.3 hPa SSE 4.8 km/h 6.4 km/h 71% 0 mm 260 W/m2
09:02 -3.4 °C -7.9 °C 1026.3 hPa South 4.8 km/h 9.7 km/h 71% 0 mm 236 W/m2
09:08 -3.3 °C -7.8 °C 1026.3 hPa South 4.8 km/h 9.7 km/h 71% 0 mm 241 W/m2
09:14 -3.2 °C -7.9 °C 1026.3 hPa SSE 4.8 km/h 6.4 km/h 70% 0 mm 288 W/m2
09:20 -3 °C -7.9 °C 1026.3 hPa SW 4.8 km/h 4.8 km/h 69% 0 mm 264 W/m2
09:26 -2.9 °C -8 °C 1026.3 hPa South 4.8 km/h 6.4 km/h 68% 0 mm 279 W/m2
09:32 -2.9 °C -8 °C 1026.3 hPa SSW 4.8 km/h 8 km/h 68% 0 mm 295 W/m2
09:38 -2.8 °C -8.3 °C 1026.3 hPa SE 3.2 km/h 8 km/h 66% 0 mm 265 W/m2
09:44 -2.9 °C -8.2 °C 1026.3 hPa South 4.8 km/h 11.3 km/h 67% 0 mm 329 W/m2
09:50 -2.6 °C -8.3 °C 1026.3 hPa SW 4.8 km/h 4.8 km/h 65% 0 mm 385 W/m2
09:56 -2.6 °C -8.7 °C 1026 hPa South 4.8 km/h 6.4 km/h 63% 0 mm 424 W/m2
10:02 -2.4 °C -8.5 °C 1025.6 hPa SSE 6.4 km/h 8 km/h 63% 0 mm 475 W/m2
10:08 -2.2 °C -8.1 °C 1025.6 hPa SSE 4.8 km/h 8 km/h 64% 0 mm 431 W/m2
10:14 -2.3 °C -8.8 °C 1025.6 hPa South 6.4 km/h 8 km/h 61% 0 mm 362 W/m2
10:20 -2.3 °C -8.4 °C 1025.6 hPa SE 6.4 km/h 6.4 km/h 63% 0 mm 355 W/m2
10:26 -2.2 °C -8.7 °C 1025.6 hPa South 4.8 km/h 6.4 km/h 61% 0 mm 438 W/m2
10:32 -2.2 °C -8.5 °C 1025.6 hPa SSE 6.4 km/h 9.7 km/h 62% 0 mm 434 W/m2
10:38 -2.1 °C -8.4 °C 1025.6 hPa ESE 8 km/h 9.7 km/h 62% 0 mm 422 W/m2
10:44 -2.1 °C -8.6 °C 1025.3 hPa SSE 8 km/h 8 km/h 61% 0 mm 406 W/m2
10:50 -1.8 °C -8.6 °C 1025.3 hPa ENE 6.4 km/h 12.9 km/h 60% 0 mm 425 W/m2
10:56 -1.5 °C -8.1 °C 1025.3 hPa SSE 6.4 km/h 12.9 km/h 61% 0 mm 468 W/m2
11:02 -1.4 °C -8.2 °C 1024.9 hPa SSE 4.8 km/h 6.4 km/h 60% 0 mm 422 W/m2
11:08 -1.4 °C -8.4 °C 1024.9 hPa ESE 4.8 km/h 8 km/h 59% 0 mm 380 W/m2
11:14 -1.6 °C -7.9 °C 1024.9 hPa SSE 4.8 km/h 8 km/h 62% 0 mm 323 W/m2
11:20 -1.5 °C -8.3 °C 1024.9 hPa South 6.4 km/h 6.4 km/h 60% 0 mm 346 W/m2
11:26 -1.4 °C -7.9 °C 1024.6 hPa SSE 6.4 km/h 8 km/h 61% 0 mm 443 W/m2
11:32 -1.2 °C -8.2 °C 1024.3 hPa SSE 6.4 km/h 6.4 km/h 59% 0 mm 411 W/m2
11:38 -0.9 °C -7.5 °C 1024.3 hPa ESE 6.4 km/h 8 km/h 61% 0 mm 411 W/m2
11:44 -1.1 °C -8.3 °C 1024.3 hPa SE 6.4 km/h 6.4 km/h 58% 0 mm 350 W/m2
11:50 -0.8 °C -7.6 °C 1023.9 hPa SW 4.8 km/h 4.8 km/h 60% 0 mm 338 W/m2
11:56 -1 °C -8 °C 1023.9 hPa South 4.8 km/h 8 km/h 59% 0 mm 315 W/m2
12:02 -0.9 °C -7.9 °C 1023.6 hPa SSE 3.2 km/h 3.2 km/h 59% 0 mm 320 W/m2
12:08 -0.6 °C -7.4 °C 1023.2 hPa SE 1.6 km/h 4.8 km/h 60% 0 mm 330 W/m2
12:14 -0.7 °C -7.9 °C 1022.9 hPa SE 3.2 km/h 4.8 km/h 58% 0 mm 311 W/m2
12:20 -0.6 °C -8.1 °C 1022.9 hPa ENE 3.2 km/h 3.2 km/h 57% 0 mm 327 W/m2
12:26 -0.3 °C -8.1 °C 1022.6 hPa SE 3.2 km/h 4.8 km/h 56% 0 mm 283 W/m2
12:32 -0.4 °C -8.2 °C 1022.6 hPa East 3.2 km/h 3.2 km/h 56% 0 mm 281 W/m2
12:38 -0.3 °C -7.6 °C 1022.2 hPa ESE 3.2 km/h 3.2 km/h 58% 0 mm 265 W/m2
12:44 -0.2 °C -7.9 °C 1021.9 hPa East 4.8 km/h 4.8 km/h 56% 0 mm 243 W/m2
12:50 -0.2 °C -8.2 °C 1022.2 hPa SE 4.8 km/h 4.8 km/h 55% 0 mm 232 W/m2
12:56 -0.1 °C -7.8 °C 1022.2 hPa South 3.2 km/h 9.7 km/h 56% 0 mm 221 W/m2
13:02 0.1 °C -8.1 °C 1021.9 hPa SSE 3.2 km/h 6.4 km/h 54% 0 mm 216 W/m2
13:08 0.1 °C -8.6 °C 1022.2 hPa SE 3.2 km/h 6.4 km/h 52% 0 mm 197 W/m2
13:14 0.1 °C -8.3 °C 1021.9 hPa SE 3.2 km/h 4.8 km/h 53% 0 mm 192 W/m2
13:20 -0.3 °C -7.6 °C 1021.6 hPa ENE 4.8 km/h 4.8 km/h 58% 0 mm 213 W/m2
13:26 -0.7 °C -7.3 °C 1021.6 hPa North 4.8 km/h 6.4 km/h 61% 0 mm 220 W/m2
13:32 -0.6 °C -7.2 °C 1020.9 hPa NNE 4.8 km/h 4.8 km/h 61% 0 mm 213 W/m2
13:38 -0.4 °C -6.6 °C 1020.5 hPa ENE 3.2 km/h 4.8 km/h 63% 0 mm 237 W/m2
13:44 -0.4 °C -7.1 °C 1020.5 hPa ENE 3.2 km/h 8 km/h 61% 0 mm 230 W/m2
13:50 -0.2 °C -7.3 °C 1020.2 hPa ENE 3.2 km/h 4.8 km/h 59% 0 mm 214 W/m2
13:56 -0.2 °C -7 °C 1020.2 hPa NE 3.2 km/h 4.8 km/h 60% 0 mm 209 W/m2
14:02 -0.1 °C -7.4 °C 1019.9 hPa ENE 4.8 km/h 4.8 km/h 58% 0 mm 216 W/m2
14:08 0.1 °C -7 °C 1019.5 hPa ENE 3.2 km/h 4.8 km/h 59% 0 mm 218 W/m2
14:14 0.2 °C -7.6 °C 1019.5 hPa East 3.2 km/h 4.8 km/h 56% 0 mm 202 W/m2
14:20 0.6 °C -8.4 °C 1019.5 hPa ESE 3.2 km/h 3.2 km/h 51% 0 mm 197 W/m2
14:26 0.9 °C -9.1 °C 1019.5 hPa SSE 4.8 km/h 6.4 km/h 47% 0 mm 176 W/m2
14:32 1.1 °C -9.6 °C 1019.2 hPa South 4.8 km/h 6.4 km/h 45% 0 mm 156 W/m2
14:38 1.1 °C -10.1 °C 1019.2 hPa South 6.4 km/h 6.4 km/h 43% 0 mm 141 W/m2
14:44 1.1 °C -9.8 °C 1018.8 hPa SSE 8 km/h 11.3 km/h 44% 0 mm 137 W/m2
16:09 1.3 °C -9.4 °C 1017.8 hPa SSE 1.6 km/h 1.6 km/h 45% 0 mm 42 W/m2
16:15 1.3 °C -9.6 °C 1017.8 hPa SSE 1.6 km/h 4.8 km/h 44% 0 mm 39 W/m2
16:22 1.4 °C -9.3 °C 1017.8 hPa ESE 3.2 km/h 4.8 km/h 45% 0 mm 35 W/m2
16:28 1.6 °C -9.1 °C 1017.8 hPa SSE 4.8 km/h 6.4 km/h 45% 0 mm 30 W/m2
16:33 1.6 °C -9.3 °C 1017.8 hPa SSE 6.4 km/h 9.7 km/h 44% 0 mm 28 W/m2
16:39 1.7 °C -9.3 °C 1017.8 hPa South 8 km/h 8 km/h 44% 0 mm 25 W/m2
16:45 1.7 °C -9.3 °C 1017.8 hPa SSW 8 km/h 8 km/h 44% 0 mm 21 W/m2
16:52 1.8 °C -9.2 °C 1017.5 hPa South 9.7 km/h 12.9 km/h 44% 0 mm 18 W/m2
16:58 1.8 °C -9.2 °C 1017.8 hPa South 9.7 km/h 12.9 km/h 44% 0 mm 14 W/m2
17:03 1.7 °C -8.7 °C 1017.8 hPa South 6.4 km/h 8 km/h 46% 0 mm 11 W/m2
17:09 1.7 °C -8.7 °C 1017.5 hPa South 6.4 km/h 6.4 km/h 46% 0 mm 9 W/m2
17:15 1.6 °C -8.8 °C 1017.5 hPa South 6.4 km/h 8 km/h 46% 0 mm 5 W/m2
17:22 1.6 °C -8.6 °C 1017.8 hPa South 4.8 km/h 4.8 km/h 47% 0 mm 0 W/m2
17:28 1.6 °C -8.8 °C 1017.8 hPa SW 6.4 km/h 9.7 km/h 46% 0 mm 0 W/m2
17:33 1.6 °C -8.5 °C 1017.5 hPa SSW 6.4 km/h 6.4 km/h 47% 0 mm 0 W/m2
17:39 1.6 °C -8.6 °C 1017.5 hPa SSW 4.8 km/h 4.8 km/h 47% 0 mm 0 W/m2
17:45 1.6 °C -8.5 °C 1017.5 hPa South 4.8 km/h 8 km/h 47% 0 mm 0 W/m2
17:51 1.6 °C -8.3 °C 1017.5 hPa SSW 4.8 km/h 6.4 km/h 48% 0 mm 0 W/m2
17:58 1.6 °C -8.6 °C 1017.5 hPa South 6.4 km/h 16.1 km/h 47% 0 mm 0 W/m2
18:03 1.6 °C -8 °C 1017.2 hPa South 6.4 km/h 9.7 km/h 49% 0 mm 0 W/m2
18:09 1.6 °C -8.3 °C 1017.2 hPa South 6.4 km/h 6.4 km/h 48% 0 mm 0 W/m2
18:15 1.5 °C -8.1 °C 1016.8 hPa South 6.4 km/h 8 km/h 49% 0 mm 0 W/m2
18:22 1.4 °C -8.1 °C 1016.8 hPa South 6.4 km/h 9.7 km/h 49% 0 mm 0 W/m2
18:28 1.4 °C -8.1 °C 1016.8 hPa SSW 6.4 km/h 9.7 km/h 49% 0 mm 0 W/m2
18:33 1.4 °C -7.9 °C 1016.8 hPa SSW 4.8 km/h 6.4 km/h 50% 0 mm 0 W/m2
18:39 1.4 °C -8.2 °C 1016.5 hPa South 4.8 km/h 4.8 km/h 49% 0 mm 0 W/m2
18:45 1.3 °C -8.2 °C 1016.1 hPa SSW 4.8 km/h 6.4 km/h 49% 0 mm 0 W/m2
18:52 1.3 °C -8 °C 1016.1 hPa South 3.2 km/h 3.2 km/h 50% 0 mm 0 W/m2
18:58 1.2 °C -7.8 °C 1016.1 hPa South 3.2 km/h 3.2 km/h 51% 0 mm 0 W/m2
19:03 1.2 °C -7.6 °C 1015.8 hPa South 3.2 km/h 3.2 km/h 52% 0 mm 0 W/m2
19:09 1.1 °C -7.7 °C 1015.8 hPa South 1.6 km/h 1.6 km/h 52% 0 mm 0 W/m2
19:15 1.1 °C -7.9 °C 1016.1 hPa South 1.6 km/h 4.8 km/h 51% 0 mm 0 W/m2
19:22 1.1 °C -7.9 °C 1016.1 hPa South 3.2 km/h 4.8 km/h 51% 0 mm 0 W/m2
19:28 1.1 °C -7.9 °C 1015.8 hPa South 3.2 km/h 4.8 km/h 51% 0 mm 0 W/m2
19:33 1.1 °C -7.9 °C 1015.8 hPa SSE 4.8 km/h 8 km/h 51% 0 mm 0 W/m2
19:39 1.2 °C -7.6 °C 1015.8 hPa South 6.4 km/h 6.4 km/h 52% 0 mm 0 W/m2
19:45 1.2 °C -7.6 °C 1015.8 hPa South 6.4 km/h 9.7 km/h 52% 0 mm 0 W/m2
19:51 1.2 °C -7.4 °C 1015.8 hPa SSE 6.4 km/h 11.3 km/h 53% 0 mm 0 W/m2
19:58 1.1 °C -7 °C 1015.8 hPa SSE 9.7 km/h 14.5 km/h 55% 0 mm 0 W/m2
20:03 0.9 °C -6.4 °C 1015.8 hPa SW 12.9 km/h 19.3 km/h 58% 0 mm 0 W/m2
20:09 0.8 °C -6.3 °C 1016.1 hPa South 11.3 km/h 11.3 km/h 59% 0 mm 0 W/m2
20:15 0.7 °C -6 °C 1016.1 hPa SSE 11.3 km/h 12.9 km/h 61% 0 mm 0 W/m2
20:22 0.6 °C -5.9 °C 1016.1 hPa South 9.7 km/h 11.3 km/h 62% 0 mm 0 W/m2
20:28 0.4 °C -5.6 °C 1016.1 hPa SW 6.4 km/h 11.3 km/h 64% 0 mm 0 W/m2
20:33 0.4 °C -5.4 °C 1016.1 hPa SSW 8 km/h 8 km/h 65% 0 mm 0 W/m2
20:39 0.3 °C -5.1 °C 1016.1 hPa SSW 6.4 km/h 8 km/h 67% 0 mm 0 W/m2
20:45 0.2 °C -5.1 °C 1016.1 hPa South 8 km/h 8 km/h 68% 0 mm 0 W/m2
20:52 0.1 °C -4.9 °C 1015.8 hPa SSW 8 km/h 12.9 km/h 69% 0 mm 0 W/m2
20:58 0.1 °C -4.8 °C 1015.8 hPa SSW 8 km/h 12.9 km/h 70% 0 mm 0 W/m2
21:03 -0.1 °C -4.7 °C 1015.8 hPa SW 6.4 km/h 14.5 km/h 71% 0 mm 0 W/m2
21:09 -0.2 °C -4.5 °C 1015.8 hPa South 6.4 km/h 9.7 km/h 73% 0 mm 0 W/m2
21:15 -0.4 °C -4.4 °C 1015.8 hPa SSW 4.8 km/h 9.7 km/h 74% 0 mm 0 W/m2
21:21 -0.5 °C -4.2 °C 1015.8 hPa SW 4.8 km/h 4.8 km/h 76% 0 mm 0 W/m2
21:28 -0.6 °C -4.1 °C 1015.8 hPa SW 3.2 km/h 4.8 km/h 77% 0 mm 0 W/m2
21:33 -0.7 °C -4.1 °C 1015.8 hPa South 3.2 km/h 4.8 km/h 78% 0 mm 0 W/m2
21:39 -0.7 °C -3.7 °C 1015.8 hPa South 3.2 km/h 3.2 km/h 80% 0 mm 0 W/m2
21:45 -0.9 °C -3.7 °C 1015.5 hPa South 1.6 km/h 3.2 km/h 81% 0 mm 0 W/m2
21:51 -1 °C -3.7 °C 1015.1 hPa South 1.6 km/h 1.6 km/h 82% 0 mm 0 W/m2
21:58 -1.1 °C -3.6 °C 1015.1 hPa Calm   1.6 km/h 83% 0 mm 0 W/m2
22:03 -1.1 °C -3.4 °C 1015.1 hPa Calm     84% 0 mm 0 W/m2
22:09 -1.2 °C -3.5 °C 1015.1 hPa Calm     84% 0 mm 0 W/m2
22:15 -1.2 °C -3.4 °C 1015.1 hPa Calm     85% 0 mm 0 W/m2
22:21 -1.2 °C -3.4 °C 1015.1 hPa Calm     85% 0 mm 0 W/m2
22:28 -1.3 °C -3.3 °C 1015.1 hPa Calm     86% 0 mm 0 W/m2
22:33 -1.3 °C -3.4 °C 1014.8 hPa Calm     86% 0 mm 0 W/m2
22:39 -1.3 °C -3.4 °C 1014.8 hPa Calm     86% 0 mm 0 W/m2
22:45 -1.3 °C -3.2 °C 1014.8 hPa Calm     87% 0 mm 0 W/m2
22:52 -1.4 °C -3.3 °C 1014.8 hPa Calm     87% 0 mm 0 W/m2
22:58 -1.3 °C -3.2 °C 1014.8 hPa Calm     87% 0 mm 0 W/m2
23:03 -1.3 °C -3.2 °C 1014.4 hPa Calm     87% 0 mm 0 W/m2
23:09 -1.4 °C -3.1 °C 1014.4 hPa Calm     88% 0 mm 0 W/m2
23:15 -1.4 °C -3.1 °C 1014.1 hPa Calm     88% 0 mm 0 W/m2
23:21 -1.4 °C -3.2 °C 1014.1 hPa Calm     88% 0 mm 0 W/m2
23:28 -1.4 °C -3.1 °C 1014.1 hPa Calm     88% 0 mm 0 W/m2
23:33 -1.4 °C -3.2 °C 1014.1 hPa Calm     88% 0 mm 0 W/m2
23:39 -1.4 °C -3.1 °C 1014.1 hPa Calm     88% 0 mm 0 W/m2
23:45 -1.4 °C -3.1 °C 1014.1 hPa Calm     88% 0 mm 0 W/m2
23:52 -1.4 °C -2.9 °C 1013.8 hPa Calm     89% 0 mm 0 W/m2
23:58 -1.4 °C -2.9 °C 1013.8 hPa Calm     89% 0 mm 0 W/m2
Country Meadow, Clay, NY, USA
Compliments of Weather Underground - 2 mb